createdAt,value
2022-11-23T00:02:39.203Z,0.69
2022-11-23T00:12:39.148Z,0.64
2022-11-23T00:22:39.045Z,0.67
2022-11-23T00:32:39.118Z,0.68
2022-11-23T00:42:39.066Z,0.66
2022-11-23T00:52:39.139Z,0.62
2022-11-23T01:02:39.064Z,0.67
2022-11-23T01:12:39.093Z,0.69
2022-11-23T01:22:39.080Z,0.68
2022-11-23T01:32:39.132Z,0.71
2022-11-23T01:42:39.084Z,0.65
2022-11-23T01:52:39.105Z,0.66
2022-11-23T02:02:39.090Z,0.65
2022-11-23T02:12:39.113Z,0.68
2022-11-23T02:22:39.110Z,0.73
2022-11-23T02:32:39.149Z,0.73
2022-11-23T02:42:39.143Z,0.72
2022-11-23T02:52:39.250Z,0.69
2022-11-23T03:02:39.117Z,0.73
2022-11-23T03:12:39.157Z,0.72
2022-11-23T03:22:39.150Z,0.63
2022-11-23T03:32:39.169Z,0.68
2022-11-23T03:42:39.164Z,0.68
2022-11-23T03:52:39.175Z,0.7
2022-11-23T04:02:39.160Z,0.71
2022-11-23T04:12:39.213Z,0.63
2022-11-23T04:22:39.173Z,0.56
2022-11-23T04:32:39.189Z,0.52
2022-11-23T04:42:39.183Z,0.53
2022-11-23T04:52:39.206Z,0.57
2022-11-23T05:02:39.197Z,0.59
2022-11-23T05:12:39.217Z,0.51
2022-11-23T05:22:39.171Z,0.6
2022-11-23T05:32:39.205Z,0.58
2022-11-23T05:42:39.185Z,0.54
2022-11-23T05:52:39.314Z,0.59
2022-11-23T06:02:41.146Z,0.67
2022-11-23T06:12:39.251Z,0.72
2022-11-23T06:22:39.247Z,0.76
2022-11-23T06:32:39.274Z,0.78
2022-11-23T06:42:40.126Z,0.77
2022-11-23T06:52:39.256Z,0.79
2022-11-23T07:02:39.255Z,0.91
2022-11-23T07:12:39.283Z,0.98
2022-11-23T07:22:39.245Z,1.11
2022-11-23T07:32:39.272Z,1.23
2022-11-23T07:42:44.335Z,1.41
2022-11-23T07:52:39.310Z,1.38
2022-11-23T08:02:48.381Z,1.47
2022-11-23T08:12:39.294Z,1.56
2022-11-23T08:22:39.259Z,1.7
2022-11-23T08:32:39.324Z,1.69
2022-11-23T08:42:39.284Z,1.72
2022-11-23T08:52:39.316Z,1.94
2022-11-23T09:02:39.283Z,2.05
2022-11-23T09:12:39.326Z,2.25
2022-11-23T09:22:39.305Z,2.45
2022-11-23T09:32:39.331Z,2.5
2022-11-23T09:42:39.280Z,2.73
2022-11-23T09:52:39.349Z,2.95
2022-11-23T10:02:39.313Z,2.88
2022-11-23T10:12:40.119Z,2.98
2022-11-23T10:22:39.293Z,3.08
2022-11-23T10:32:39.362Z,3.07
2022-11-23T10:42:39.314Z,2.98
2022-11-23T10:52:39.326Z,3.24
2022-11-23T11:02:39.313Z,3.31
2022-11-23T11:12:39.355Z,3.45
2022-11-23T11:22:42.111Z,3.66
2022-11-23T11:32:39.371Z,3.85
2022-11-23T11:42:39.343Z,3.84
2022-11-23T11:52:39.350Z,3.59
2022-11-23T12:02:39.348Z,3.75
2022-11-23T12:12:39.368Z,3.79
2022-11-23T12:22:39.321Z,3.72
2022-11-23T12:32:39.353Z,3.73
2022-11-23T12:42:39.328Z,3.83
2022-11-23T12:52:39.366Z,3.85
2022-11-23T13:02:39.405Z,3.8
2022-11-23T13:12:39.384Z,3.88
2022-11-23T13:22:39.327Z,4.04
2022-11-23T13:32:39.387Z,4.08
2022-11-23T13:42:39.338Z,4.03
2022-11-23T13:52:39.357Z,4.04
2022-11-23T14:02:39.434Z,3.99
2022-11-23T14:12:39.379Z,3.94
2022-11-23T14:22:39.379Z,3.87
2022-11-23T14:32:39.383Z,3.7
2022-11-23T14:42:39.337Z,3.58
2022-11-23T14:52:39.399Z,3.42
2022-11-23T15:02:39.398Z,3.34
2022-11-23T15:12:39.397Z,3.25
2022-11-23T15:22:39.368Z,3.18
2022-11-23T15:32:39.466Z,3.02
2022-11-23T15:42:39.371Z,2.92
2022-11-23T15:52:39.377Z,2.91
2022-11-23T16:02:39.440Z,2.81
2022-11-23T16:12:39.452Z,2.72
2022-11-23T16:22:39.385Z,2.8
2022-11-23T16:32:39.439Z,2.84
2022-11-23T16:42:39.366Z,2.91
2022-11-23T16:52:39.390Z,2.89
2022-11-23T17:02:39.432Z,2.91
2022-11-23T17:12:39.408Z,2.9
2022-11-23T17:22:39.389Z,2.84
2022-11-23T17:32:39.413Z,2.82
2022-11-23T17:42:39.417Z,2.69
2022-11-23T17:52:39.450Z,2.6
2022-11-23T18:02:39.393Z,2.5
2022-11-23T18:12:39.427Z,2.4
2022-11-23T18:22:39.378Z,2.41
2022-11-23T18:32:39.423Z,2.32
2022-11-23T18:42:39.412Z,2.23
2022-11-23T18:52:39.430Z,2.16
2022-11-23T19:02:39.436Z,2.06
2022-11-23T19:12:39.428Z,1.95
2022-11-23T19:22:39.403Z,1.91
2022-11-23T19:32:39.449Z,1.85
2022-11-23T19:42:39.437Z,1.68
2022-11-23T19:53:04.025Z,1.7
2022-11-23T20:02:39.445Z,1.76
2022-11-23T20:12:39.454Z,1.79
2022-11-23T20:22:39.475Z,1.7
2022-11-23T20:32:39.499Z,1.58
2022-11-23T20:42:39.431Z,1.46
2022-11-23T20:52:39.477Z,1.3
2022-11-23T21:02:39.509Z,1.18
2022-11-23T21:12:39.484Z,1.02
2022-11-23T21:22:39.492Z,0.85
2022-11-23T21:32:39.482Z,0.65
2022-11-23T21:42:39.478Z,0.53
2022-11-23T21:52:39.651Z,0.45
2022-11-23T22:02:39.532Z,0.47
2022-11-23T22:12:39.537Z,0.32
2022-11-23T22:22:39.525Z,0.48
2022-11-23T22:32:39.551Z,0.56
2022-11-23T22:42:39.543Z,0.75
2022-11-23T22:52:39.541Z,0.77
2022-11-23T23:02:39.660Z,0.7
2022-11-23T23:12:39.548Z,0.65
2022-11-23T23:22:39.528Z,0.63
2022-11-23T23:32:39.583Z,0.58
2022-11-23T23:42:46.692Z,0.56
2022-11-23T23:52:39.546Z,0.63
